Aviation Digital Data Service (ADDS)

Output produced by TAFs form (1156 UTC 26 August 2016)
found at http://aviationweather.gov/adds/tafs/
 
KDMN 261124Z 2612/2712 07005KT P6SM SCT100 BKN250 
     FM262000 20007KT P6SM VCTS SCT070CB BKN120 
     FM270600 26007KT P6SM SCT100 BKN250